sensor_id;sensor_type;location;lat;lon;timestamp;temperature;humidity
18934;DHT22;9599;53.706;10.384;2024-02-23T00:01:52;10.50;99.90
18934;DHT22;9599;53.706;10.384;2024-02-23T00:04:22;10.40;99.90
18934;DHT22;9599;53.706;10.384;2024-02-23T00:06:50;10.30;99.90
18934;DHT22;9599;53.706;10.384;2024-02-23T00:09:18;10.30;99.90
18934;DHT22;9599;53.706;10.384;2024-02-23T00:11:46;10.20;99.90
18934;DHT22;9599;53.706;10.384;2024-02-23T00:14:16;10.10;99.90
18934;DHT22;9599;53.706;10.384;2024-02-23T00:16:45;10.10;99.90
18934;DHT22;9599;53.706;10.384;2024-02-23T00:19:13;10.10;99.90
18934;DHT22;9599;53.706;10.384;2024-02-23T00:21:43;10.10;99.90
18934;DHT22;9599;53.706;10.384;2024-02-23T00:24:14;10.10;99.90
18934;DHT22;9599;53.706;10.384;2024-02-23T00:26:43;10.10;99.90
18934;DHT22;9599;53.706;10.384;2024-02-23T00:29:11;10.10;99.90
18934;DHT22;9599;53.706;10.384;2024-02-23T00:31:39;10.10;99.90
18934;DHT22;9599;53.706;10.384;2024-02-23T00:34:08;10.00;99.90
18934;DHT22;9599;53.706;10.384;2024-02-23T00:36:38;10.00;99.90
18934;DHT22;9599;53.706;10.384;2024-02-23T00:39:08;10.00;99.90
18934;DHT22;9599;53.706;10.384;2024-02-23T00:41:36;9.90;99.90
18934;DHT22;9599;53.706;10.384;2024-02-23T00:44:06;9.90;99.90
18934;DHT22;9599;53.706;10.384;2024-02-23T00:46:34;9.80;99.90
18934;DHT22;9599;53.706;10.384;2024-02-23T00:49:02;9.80;99.90
18934;DHT22;9599;53.706;10.384;2024-02-23T00:51:30;9.70;99.90
18934;DHT22;9599;53.706;10.384;2024-02-23T00:53:58;9.70;99.90
18934;DHT22;9599;53.706;10.384;2024-02-23T00:56:27;9.70;99.90
18934;DHT22;9599;53.706;10.384;2024-02-23T00:59:11;9.70;99.90
18934;DHT22;9599;53.706;10.384;2024-02-23T01:01:39;9.60;99.90
18934;DHT22;9599;53.706;10.384;2024-02-23T01:04:07;9.60;99.90
18934;DHT22;9599;53.706;10.384;2024-02-23T01:06:35;9.60;99.90
18934;DHT22;9599;53.706;10.384;2024-02-23T01:09:04;9.60;99.90
18934;DHT22;9599;53.706;10.384;2024-02-23T01:11:34;9.50;99.90
18934;DHT22;9599;53.706;10.384;2024-02-23T01:14:03;9.30;99.90
18934;DHT22;9599;53.706;10.384;2024-02-23T01:16:33;8.90;99.90
18934;DHT22;9599;53.706;10.384;2024-02-23T01:19:01;8.50;99.90
18934;DHT22;9599;53.706;10.384;2024-02-23T01:21:30;8.10;99.90
18934;DHT22;9599;53.706;10.384;2024-02-23T01:23:58;7.90;99.90
18934;DHT22;9599;53.706;10.384;2024-02-23T01:26:27;7.80;99.90
18934;DHT22;9599;53.706;10.384;2024-02-23T01:28:56;7.70;99.90
18934;DHT22;9599;53.706;10.384;2024-02-23T01:31:26;7.60;99.90
18934;DHT22;9599;53.706;10.384;2024-02-23T01:33:54;7.60;99.90
18934;DHT22;9599;53.706;10.384;2024-02-23T01:36:22;7.60;99.90
18934;DHT22;9599;53.706;10.384;2024-02-23T01:38:51;7.60;99.90
18934;DHT22;9599;53.706;10.384;2024-02-23T01:41:18;7.60;99.90
18934;DHT22;9599;53.706;10.384;2024-02-23T01:43:46;7.60;99.90
18934;DHT22;9599;53.706;10.384;2024-02-23T01:46:17;7.50;99.90
18934;DHT22;9599;53.706;10.384;2024-02-23T01:48:47;7.50;99.90
18934;DHT22;9599;53.706;10.384;2024-02-23T01:51:15;7.50;99.90
18934;DHT22;9599;53.706;10.384;2024-02-23T01:53:43;7.40;99.90
18934;DHT22;9599;53.706;10.384;2024-02-23T01:56:12;7.40;99.90
18934;DHT22;9599;53.706;10.384;2024-02-23T01:58:46;7.40;99.90
18934;DHT22;9599;53.706;10.384;2024-02-23T02:01:14;7.40;99.90
18934;DHT22;9599;53.706;10.384;2024-02-23T02:03:45;7.40;99.90
18934;DHT22;9599;53.706;10.384;2024-02-23T02:06:13;7.40;99.90
18934;DHT22;9599;53.706;10.384;2024-02-23T02:08:42;7.40;99.90
18934;DHT22;9599;53.706;10.384;2024-02-23T02:11:10;7.40;99.90
18934;DHT22;9599;53.706;10.384;2024-02-23T02:13:38;7.40;99.90
18934;DHT22;9599;53.706;10.384;2024-02-23T02:16:06;7.40;99.90
18934;DHT22;9599;53.706;10.384;2024-02-23T02:18:34;7.40;99.90
18934;DHT22;9599;53.706;10.384;2024-02-23T02:21:04;7.40;99.90
18934;DHT22;9599;53.706;10.384;2024-02-23T02:23:32;7.40;99.90
18934;DHT22;9599;53.706;10.384;2024-02-23T02:26:00;7.30;99.90
18934;DHT22;9599;53.706;10.384;2024-02-23T02:28:28;7.30;99.90
18934;DHT22;9599;53.706;10.384;2024-02-23T02:30:56;7.30;99.90
18934;DHT22;9599;53.706;10.384;2024-02-23T02:33:25;7.30;99.90
18934;DHT22;9599;53.706;10.384;2024-02-23T02:35:53;7.30;99.90
18934;DHT22;9599;53.706;10.384;2024-02-23T02:38:23;7.30;99.90
18934;DHT22;9599;53.706;10.384;2024-02-23T02:40:51;7.20;99.90
18934;DHT22;9599;53.706;10.384;2024-02-23T02:43:19;7.20;99.90
18934;DHT22;9599;53.706;10.384;2024-02-23T02:45:48;7.20;99.90
18934;DHT22;9599;53.706;10.384;2024-02-23T02:48:17;7.10;99.90
18934;DHT22;9599;53.706;10.384;2024-02-23T02:50:45;7.00;99.90
18934;DHT22;9599;53.706;10.384;2024-02-23T02:53:14;7.00;99.90
18934;DHT22;9599;53.706;10.384;2024-02-23T02:55:44;6.90;99.90
18934;DHT22;9599;53.706;10.384;2024-02-23T02:58:12;6.90;99.90
18934;DHT22;9599;53.706;10.384;2024-02-23T03:00:40;6.80;99.90
18934;DHT22;9599;53.706;10.384;2024-02-23T03:03:09;6.80;99.90
18934;DHT22;9599;53.706;10.384;2024-02-23T03:05:37;6.80;99.90
18934;DHT22;9599;53.706;10.384;2024-02-23T03:08:06;6.80;99.90
18934;DHT22;9599;53.706;10.384;2024-02-23T03:10:34;6.70;99.90
18934;DHT22;9599;53.706;10.384;2024-02-23T03:13:04;6.70;99.90
18934;DHT22;9599;53.706;10.384;2024-02-23T03:15:32;6.60;99.90
18934;DHT22;9599;53.706;10.384;2024-02-23T03:18:00;6.50;99.90
18934;DHT22;9599;53.706;10.384;2024-02-23T03:20:29;6.50;99.90
18934;DHT22;9599;53.706;10.384;2024-02-23T03:22:57;6.60;99.90
18934;DHT22;9599;53.706;10.384;2024-02-23T03:25:25;6.50;99.90
18934;DHT22;9599;53.706;10.384;2024-02-23T03:27:53;6.60;99.90
18934;DHT22;9599;53.706;10.384;2024-02-23T03:30:22;6.60;99.90
18934;DHT22;9599;53.706;10.384;2024-02-23T03:32:50;6.60;99.90
18934;DHT22;9599;53.706;10.384;2024-02-23T03:35:19;6.60;99.90
18934;DHT22;9599;53.706;10.384;2024-02-23T03:37:48;6.50;99.90
18934;DHT22;9599;53.706;10.384;2024-02-23T03:40:17;6.60;99.90
18934;DHT22;9599;53.706;10.384;2024-02-23T03:42:45;6.50;99.90
18934;DHT22;9599;53.706;10.384;2024-02-23T03:45:14;6.50;99.90
18934;DHT22;9599;53.706;10.384;2024-02-23T03:47:43;6.50;99.90
18934;DHT22;9599;53.706;10.384;2024-02-23T03:50:11;6.50;99.90
18934;DHT22;9599;53.706;10.384;2024-02-23T03:52:40;6.40;99.90
18934;DHT22;9599;53.706;10.384;2024-02-23T03:55:08;6.40;99.90
18934;DHT22;9599;53.706;10.384;2024-02-23T03:57:36;6.50;99.90
18934;DHT22;9599;53.706;10.384;2024-02-23T04:00:05;6.50;99.90
18934;DHT22;9599;53.706;10.384;2024-02-23T04:02:42;6.40;99.90
18934;DHT22;9599;53.706;10.384;2024-02-23T04:05:10;6.40;99.90
18934;DHT22;9599;53.706;10.384;2024-02-23T04:07:38;6.40;99.90
18934;DHT22;9599;53.706;10.384;2024-02-23T04:10:07;6.40;99.90
18934;DHT22;9599;53.706;10.384;2024-02-23T04:12:35;6.30;99.90
18934;DHT22;9599;53.706;10.384;2024-02-23T04:15:04;6.30;99.90
18934;DHT22;9599;53.706;10.384;2024-02-23T04:17:32;6.30;99.90
18934;DHT22;9599;53.706;10.384;2024-02-23T04:20:06;6.30;99.90
18934;DHT22;9599;53.706;10.384;2024-02-23T04:22:36;6.20;99.90
18934;DHT22;9599;53.706;10.384;2024-02-23T04:25:04;6.20;99.90
18934;DHT22;9599;53.706;10.384;2024-02-23T04:27:33;6.30;99.90
18934;DHT22;9599;53.706;10.384;2024-02-23T04:30:02;6.20;99.90
18934;DHT22;9599;53.706;10.384;2024-02-23T04:32:30;6.20;99.90
18934;DHT22;9599;53.706;10.384;2024-02-23T04:34:58;6.20;99.90
18934;DHT22;9599;53.706;10.384;2024-02-23T04:37:27;6.10;99.90
18934;DHT22;9599;53.706;10.384;2024-02-23T04:39:59;6.10;99.90
18934;DHT22;9599;53.706;10.384;2024-02-23T04:42:27;6.10;99.90
18934;DHT22;9599;53.706;10.384;2024-02-23T04:44:55;6.10;99.90
18934;DHT22;9599;53.706;10.384;2024-02-23T04:47:24;6.20;99.90
18934;DHT22;9599;53.706;10.384;2024-02-23T04:49:52;6.10;99.90
18934;DHT22;9599;53.706;10.384;2024-02-23T04:52:20;6.20;99.90
18934;DHT22;9599;53.706;10.384;2024-02-23T04:54:50;6.20;99.90
18934;DHT22;9599;53.706;10.384;2024-02-23T04:57:18;6.20;99.90
18934;DHT22;9599;53.706;10.384;2024-02-23T04:59:46;6.20;99.90
18934;DHT22;9599;53.706;10.384;2024-02-23T05:02:14;6.20;99.90
18934;DHT22;9599;53.706;10.384;2024-02-23T05:04:42;6.20;99.90
18934;DHT22;9599;53.706;10.384;2024-02-23T05:07:10;6.20;99.90
18934;DHT22;9599;53.706;10.384;2024-02-23T05:09:38;6.20;99.90
18934;DHT22;9599;53.706;10.384;2024-02-23T05:12:10;6.20;99.90
18934;DHT22;9599;53.706;10.384;2024-02-23T05:14:38;6.20;99.90
18934;DHT22;9599;53.706;10.384;2024-02-23T05:17:06;6.10;99.90
18934;DHT22;9599;53.706;10.384;2024-02-23T05:19:34;6.20;99.90
18934;DHT22;9599;53.706;10.384;2024-02-23T05:22:02;6.20;99.90
18934;DHT22;9599;53.706;10.384;2024-02-23T05:24:30;6.20;99.90
18934;DHT22;9599;53.706;10.384;2024-02-23T05:26:58;6.20;99.90
18934;DHT22;9599;53.706;10.384;2024-02-23T05:29:30;6.20;99.90
18934;DHT22;9599;53.706;10.384;2024-02-23T05:31:59;6.20;99.90
18934;DHT22;9599;53.706;10.384;2024-02-23T05:34:27;6.20;99.90
18934;DHT22;9599;53.706;10.384;2024-02-23T05:36:55;6.10;99.90
18934;DHT22;9599;53.706;10.384;2024-02-23T05:39:23;6.10;99.90
18934;DHT22;9599;53.706;10.384;2024-02-23T05:41:51;6.10;99.90
18934;DHT22;9599;53.706;10.384;2024-02-23T05:44:19;6.10;99.90
18934;DHT22;9599;53.706;10.384;2024-02-23T05:46:49;6.10;99.90
18934;DHT22;9599;53.706;10.384;2024-02-23T05:49:17;6.10;99.90
18934;DHT22;9599;53.706;10.384;2024-02-23T05:51:45;6.10;99.90
18934;DHT22;9599;53.706;10.384;2024-02-23T05:54:13;6.10;99.90
18934;DHT22;9599;53.706;10.384;2024-02-23T05:56:41;6.10;99.90
18934;DHT22;9599;53.706;10.384;2024-02-23T05:59:09;6.00;99.90
18934;DHT22;9599;53.706;10.384;2024-02-23T06:01:37;6.10;99.90
18934;DHT22;9599;53.706;10.384;2024-02-23T06:04:07;6.10;99.90
18934;DHT22;9599;53.706;10.384;2024-02-23T06:06:36;6.10;99.90
18934;DHT22;9599;53.706;10.384;2024-02-23T06:09:04;6.00;99.90
18934;DHT22;9599;53.706;10.384;2024-02-23T06:11:32;6.10;99.90
18934;DHT22;9599;53.706;10.384;2024-02-23T06:14:00;6.00;99.90
18934;DHT22;9599;53.706;10.384;2024-02-23T06:16:29;6.00;99.90
18934;DHT22;9599;53.706;10.384;2024-02-23T06:18:57;6.00;99.90
18934;DHT22;9599;53.706;10.384;2024-02-23T06:21:27;6.00;99.90
18934;DHT22;9599;53.706;10.384;2024-02-23T06:23:55;6.00;99.90
18934;DHT22;9599;53.706;10.384;2024-02-23T06:26:24;6.10;99.90
18934;DHT22;9599;53.706;10.384;2024-02-23T06:28:52;6.10;99.90
18934;DHT22;9599;53.706;10.384;2024-02-23T06:31:20;6.00;99.90
18934;DHT22;9599;53.706;10.384;2024-02-23T06:33:48;6.00;99.90
18934;DHT22;9599;53.706;10.384;2024-02-23T06:36:18;6.10;99.90
18934;DHT22;9599;53.706;10.384;2024-02-23T06:38:48;6.10;99.90
18934;DHT22;9599;53.706;10.384;2024-02-23T06:41:17;6.00;99.90
18934;DHT22;9599;53.706;10.384;2024-02-23T06:43:46;6.10;99.90
18934;DHT22;9599;53.706;10.384;2024-02-23T06:46:14;6.10;99.90
18934;DHT22;9599;53.706;10.384;2024-02-23T06:48:42;6.10;99.90
18934;DHT22;9599;53.706;10.384;2024-02-23T06:51:13;6.10;99.90
18934;DHT22;9599;53.706;10.384;2024-02-23T06:53:43;6.10;99.90
18934;DHT22;9599;53.706;10.384;2024-02-23T06:56:12;6.10;99.90
18934;DHT22;9599;53.706;10.384;2024-02-23T06:58:41;6.10;99.90
18934;DHT22;9599;53.706;10.384;2024-02-23T07:01:09;6.10;99.90
18934;DHT22;9599;53.706;10.384;2024-02-23T07:03:39;6.10;99.90
18934;DHT22;9599;53.706;10.384;2024-02-23T07:06:09;6.10;99.90
18934;DHT22;9599;53.706;10.384;2024-02-23T07:08:37;6.10;99.90
18934;DHT22;9599;53.706;10.384;2024-02-23T07:11:05;6.10;99.90
18934;DHT22;9599;53.706;10.384;2024-02-23T07:13:35;6.10;99.90
18934;DHT22;9599;53.706;10.384;2024-02-23T07:16:04;6.10;99.90
18934;DHT22;9599;53.706;10.384;2024-02-23T07:18:32;6.10;99.90
18934;DHT22;9599;53.706;10.384;2024-02-23T07:21:00;6.10;99.90
18934;DHT22;9599;53.706;10.384;2024-02-23T07:23:28;6.20;99.90
18934;DHT22;9599;53.706;10.384;2024-02-23T07:25:56;6.20;99.90
18934;DHT22;9599;53.706;10.384;2024-02-23T07:28:24;6.30;99.90
18934;DHT22;9599;53.706;10.384;2024-02-23T07:30:54;6.20;99.90
18934;DHT22;9599;53.706;10.384;2024-02-23T07:33:22;6.20;99.90
18934;DHT22;9599;53.706;10.384;2024-02-23T07:35:50;6.20;99.90
18934;DHT22;9599;53.706;10.384;2024-02-23T07:38:18;6.20;99.90
18934;DHT22;9599;53.706;10.384;2024-02-23T07:40:48;6.30;99.90
18934;DHT22;9599;53.706;10.384;2024-02-23T07:43:16;6.20;99.90
18934;DHT22;9599;53.706;10.384;2024-02-23T07:45:44;6.20;99.90
18934;DHT22;9599;53.706;10.384;2024-02-23T07:48:14;6.20;99.90
18934;DHT22;9599;53.706;10.384;2024-02-23T07:50:42;6.20;99.90
18934;DHT22;9599;53.706;10.384;2024-02-23T07:53:10;6.20;99.90
18934;DHT22;9599;53.706;10.384;2024-02-23T07:55:38;6.20;99.90
18934;DHT22;9599;53.706;10.384;2024-02-23T07:58:06;6.20;99.90
18934;DHT22;9599;53.706;10.384;2024-02-23T08:00:34;6.20;99.90
18934;DHT22;9599;53.706;10.384;2024-02-23T08:03:05;6.20;99.90
18934;DHT22;9599;53.706;10.384;2024-02-23T08:05:36;6.30;99.90
18934;DHT22;9599;53.706;10.384;2024-02-23T08:08:05;6.30;99.90
18934;DHT22;9599;53.706;10.384;2024-02-23T08:10:35;6.30;99.90
18934;DHT22;9599;53.706;10.384;2024-02-23T08:13:03;6.30;99.90
18934;DHT22;9599;53.706;10.384;2024-02-23T08:15:31;6.40;99.90
18934;DHT22;9599;53.706;10.384;2024-02-23T08:17:59;6.50;99.90
18934;DHT22;9599;53.706;10.384;2024-02-23T08:20:27;6.60;99.90
18934;DHT22;9599;53.706;10.384;2024-02-23T08:22:56;6.70;99.90
18934;DHT22;9599;53.706;10.384;2024-02-23T08:25:25;6.80;99.90
18934;DHT22;9599;53.706;10.384;2024-02-23T08:27:55;7.00;99.90
18934;DHT22;9599;53.706;10.384;2024-02-23T08:30:23;7.00;99.90
18934;DHT22;9599;53.706;10.384;2024-02-23T08:32:51;7.00;99.90
18934;DHT22;9599;53.706;10.384;2024-02-23T08:35:20;7.00;99.90
18934;DHT22;9599;53.706;10.384;2024-02-23T08:37:48;7.00;99.90
18934;DHT22;9599;53.706;10.384;2024-02-23T08:40:17;7.10;99.90
18934;DHT22;9599;53.706;10.384;2024-02-23T08:42:45;7.00;99.90
18934;DHT22;9599;53.706;10.384;2024-02-23T08:45:17;7.00;99.90
18934;DHT22;9599;53.706;10.384;2024-02-23T08:47:45;7.00;99.90
18934;DHT22;9599;53.706;10.384;2024-02-23T08:50:14;7.20;99.90
18934;DHT22;9599;53.706;10.384;2024-02-23T08:52:42;7.40;99.90
18934;DHT22;9599;53.706;10.384;2024-02-23T08:55:10;7.50;99.90
18934;DHT22;9599;53.706;10.384;2024-02-23T08:57:40;7.70;99.90
18934;DHT22;9599;53.706;10.384;2024-02-23T09:00:10;7.90;99.90
18934;DHT22;9599;53.706;10.384;2024-02-23T09:02:43;8.00;99.90
18934;DHT22;9599;53.706;10.384;2024-02-23T09:05:12;7.90;99.90
18934;DHT22;9599;53.706;10.384;2024-02-23T09:07:40;7.80;99.90
18934;DHT22;9599;53.706;10.384;2024-02-23T09:10:09;7.80;99.90
18934;DHT22;9599;53.706;10.384;2024-02-23T09:12:39;7.80;99.90
18934;DHT22;9599;53.706;10.384;2024-02-23T09:15:09;7.90;99.90
18934;DHT22;9599;53.706;10.384;2024-02-23T09:17:37;7.90;99.90
18934;DHT22;9599;53.706;10.384;2024-02-23T09:20:05;7.90;99.90
18934;DHT22;9599;53.706;10.384;2024-02-23T09:22:34;8.00;99.90
18934;DHT22;9599;53.706;10.384;2024-02-23T09:25:04;7.90;99.90
18934;DHT22;9599;53.706;10.384;2024-02-23T09:27:32;7.90;99.90
18934;DHT22;9599;53.706;10.384;2024-02-23T09:30:05;7.90;99.90
18934;DHT22;9599;53.706;10.384;2024-02-23T09:32:33;7.90;99.90
18934;DHT22;9599;53.706;10.384;2024-02-23T09:35:02;7.80;99.90
18934;DHT22;9599;53.706;10.384;2024-02-23T09:37:30;7.70;99.90
18934;DHT22;9599;53.706;10.384;2024-02-23T09:39:59;7.80;99.90
18934;DHT22;9599;53.706;10.384;2024-02-23T09:42:28;7.90;99.90
18934;DHT22;9599;53.706;10.384;2024-02-23T09:44:59;7.90;99.90
18934;DHT22;9599;53.706;10.384;2024-02-23T09:47:29;7.90;99.90
18934;DHT22;9599;53.706;10.384;2024-02-23T09:49:58;7.90;99.90
18934;DHT22;9599;53.706;10.384;2024-02-23T09:52:28;7.90;99.90
18934;DHT22;9599;53.706;10.384;2024-02-23T09:54:56;7.90;99.90
18934;DHT22;9599;53.706;10.384;2024-02-23T09:57:25;7.90;99.90
18934;DHT22;9599;53.706;10.384;2024-02-23T09:59:53;7.90;99.90
18934;DHT22;9599;53.706;10.384;2024-02-23T10:02:24;7.90;99.90
18934;DHT22;9599;53.706;10.384;2024-02-23T10:04:56;8.00;99.90
18934;DHT22;9599;53.706;10.384;2024-02-23T10:07:24;8.00;99.90
18934;DHT22;9599;53.706;10.384;2024-02-23T10:09:53;8.10;99.90
18934;DHT22;9599;53.706;10.384;2024-02-23T10:12:22;8.20;99.90
18934;DHT22;9599;53.706;10.384;2024-02-23T10:14:50;8.30;99.90
18934;DHT22;9599;53.706;10.384;2024-02-23T10:17:20;8.20;99.90
18934;DHT22;9599;53.706;10.384;2024-02-23T10:19:48;8.30;99.90
18934;DHT22;9599;53.706;10.384;2024-02-23T10:22:18;8.40;99.90
18934;DHT22;9599;53.706;10.384;2024-02-23T10:24:48;8.40;99.90
18934;DHT22;9599;53.706;10.384;2024-02-23T10:27:16;8.30;99.90
18934;DHT22;9599;53.706;10.384;2024-02-23T10:29:44;8.40;99.90
18934;DHT22;9599;53.706;10.384;2024-02-23T10:32:15;8.70;99.90
18934;DHT22;9599;53.706;10.384;2024-02-23T10:34:44;8.80;99.90
18934;DHT22;9599;53.706;10.384;2024-02-23T10:37:15;9.10;99.90
18934;DHT22;9599;53.706;10.384;2024-02-23T10:39:47;9.40;99.90
18934;DHT22;9599;53.706;10.384;2024-02-23T10:42:18;9.60;99.90
18934;DHT22;9599;53.706;10.384;2024-02-23T10:44:52;9.60;99.90
18934;DHT22;9599;53.706;10.384;2024-02-23T10:47:24;9.50;99.90
18934;DHT22;9599;53.706;10.384;2024-02-23T10:49:54;9.40;99.90
18934;DHT22;9599;53.706;10.384;2024-02-23T10:52:24;9.50;99.90
18934;DHT22;9599;53.706;10.384;2024-02-23T10:54:55;9.40;99.90
18934;DHT22;9599;53.706;10.384;2024-02-23T10:57:27;9.30;99.90
18934;DHT22;9599;53.706;10.384;2024-02-23T10:59:57;9.10;99.90
18934;DHT22;9599;53.706;10.384;2024-02-23T11:02:26;9.00;99.90
18934;DHT22;9599;53.706;10.384;2024-02-23T11:04:59;9.10;99.90
18934;DHT22;9599;53.706;10.384;2024-02-23T11:07:30;9.00;99.90
18934;DHT22;9599;53.706;10.384;2024-02-23T11:10:04;9.10;99.90
18934;DHT22;9599;53.706;10.384;2024-02-23T11:12:34;9.20;99.90
18934;DHT22;9599;53.706;10.384;2024-02-23T11:15:04;9.10;99.90
18934;DHT22;9599;53.706;10.384;2024-02-23T11:17:34;9.20;99.90
18934;DHT22;9599;53.706;10.384;2024-02-23T11:20:05;9.20;99.90
18934;DHT22;9599;53.706;10.384;2024-02-23T11:22:36;9.30;99.90
18934;DHT22;9599;53.706;10.384;2024-02-23T11:25:08;9.20;99.90
18934;DHT22;9599;53.706;10.384;2024-02-23T11:27:38;9.10;99.90
18934;DHT22;9599;53.706;10.384;2024-02-23T11:30:08;9.00;99.90
18934;DHT22;9599;53.706;10.384;2024-02-23T11:32:39;9.00;99.90
18934;DHT22;9599;53.706;10.384;2024-02-23T11:35:11;9.00;99.90
18934;DHT22;9599;53.706;10.384;2024-02-23T11:37:51;9.00;99.90
18934;DHT22;9599;53.706;10.384;2024-02-23T11:40:26;9.00;99.90
18934;DHT22;9599;53.706;10.384;2024-02-23T11:42:55;9.10;99.90
18934;DHT22;9599;53.706;10.384;2024-02-23T11:45:24;9.10;99.90
18934;DHT22;9599;53.706;10.384;2024-02-23T11:47:52;9.00;99.90
18934;DHT22;9599;53.706;10.384;2024-02-23T11:50:20;9.00;99.90
18934;DHT22;9599;53.706;10.384;2024-02-23T11:52:49;8.80;99.90
18934;DHT22;9599;53.706;10.384;2024-02-23T11:55:19;8.80;99.90
18934;DHT22;9599;53.706;10.384;2024-02-23T11:57:50;8.80;99.90
18934;DHT22;9599;53.706;10.384;2024-02-23T12:00:31;8.90;99.90
18934;DHT22;9599;53.706;10.384;2024-02-23T12:02:59;9.00;99.90
18934;DHT22;9599;53.706;10.384;2024-02-23T12:05:27;9.00;99.90
18934;DHT22;9599;53.706;10.384;2024-02-23T12:07:56;9.00;99.90
18934;DHT22;9599;53.706;10.384;2024-02-23T12:10:25;9.00;99.90
18934;DHT22;9599;53.706;10.384;2024-02-23T12:12:55;9.00;99.90
18934;DHT22;9599;53.706;10.384;2024-02-23T12:15:23;9.10;99.90
18934;DHT22;9599;53.706;10.384;2024-02-23T12:17:51;9.20;99.90
18934;DHT22;9599;53.706;10.384;2024-02-23T12:20:19;9.20;99.90
18934;DHT22;9599;53.706;10.384;2024-02-23T12:22:48;9.20;99.90
18934;DHT22;9599;53.706;10.384;2024-02-23T12:25:17;9.30;99.90
18934;DHT22;9599;53.706;10.384;2024-02-23T12:27:45;9.20;99.90
18934;DHT22;9599;53.706;10.384;2024-02-23T12:30:15;9.20;99.90
18934;DHT22;9599;53.706;10.384;2024-02-23T12:32:45;9.10;99.90
18934;DHT22;9599;53.706;10.384;2024-02-23T12:35:14;9.10;99.90
18934;DHT22;9599;53.706;10.384;2024-02-23T12:37:43;9.10;99.90
18934;DHT22;9599;53.706;10.384;2024-02-23T12:40:12;9.20;99.90
18934;DHT22;9599;53.706;10.384;2024-02-23T12:42:40;9.30;99.90
18934;DHT22;9599;53.706;10.384;2024-02-23T12:45:09;9.40;99.90
18934;DHT22;9599;53.706;10.384;2024-02-23T12:47:38;9.40;99.90
18934;DHT22;9599;53.706;10.384;2024-02-23T12:50:07;9.30;99.90
18934;DHT22;9599;53.706;10.384;2024-02-23T12:52:37;9.30;99.90
18934;DHT22;9599;53.706;10.384;2024-02-23T12:55:06;9.40;99.90
18934;DHT22;9599;53.706;10.384;2024-02-23T12:57:34;9.30;99.90
18934;DHT22;9599;53.706;10.384;2024-02-23T13:00:03;9.40;99.90
18934;DHT22;9599;53.706;10.384;2024-02-23T13:02:32;9.20;99.90
18934;DHT22;9599;53.706;10.384;2024-02-23T13:05:01;9.10;99.90
18934;DHT22;9599;53.706;10.384;2024-02-23T13:07:29;9.00;99.90
18934;DHT22;9599;53.706;10.384;2024-02-23T13:09:57;9.00;99.90
18934;DHT22;9599;53.706;10.384;2024-02-23T13:12:26;9.10;99.90
18934;DHT22;9599;53.706;10.384;2024-02-23T13:14:54;9.10;99.90
18934;DHT22;9599;53.706;10.384;2024-02-23T13:17:22;9.10;99.90
18934;DHT22;9599;53.706;10.384;2024-02-23T13:19:50;9.10;99.90
18934;DHT22;9599;53.706;10.384;2024-02-23T13:22:35;9.00;99.90
18934;DHT22;9599;53.706;10.384;2024-02-23T13:25:04;9.00;99.90
18934;DHT22;9599;53.706;10.384;2024-02-23T13:27:32;8.90;99.90
18934;DHT22;9599;53.706;10.384;2024-02-23T13:30:01;9.00;99.90
18934;DHT22;9599;53.706;10.384;2024-02-23T13:32:29;9.00;99.90
18934;DHT22;9599;53.706;10.384;2024-02-23T13:34:58;9.10;99.90
18934;DHT22;9599;53.706;10.384;2024-02-23T13:37:27;9.00;99.90
18934;DHT22;9599;53.706;10.384;2024-02-23T13:39:57;9.10;99.90
18934;DHT22;9599;53.706;10.384;2024-02-23T13:42:25;9.00;99.90
18934;DHT22;9599;53.706;10.384;2024-02-23T13:44:53;9.00;99.90
18934;DHT22;9599;53.706;10.384;2024-02-23T13:47:24;9.00;99.90
18934;DHT22;9599;53.706;10.384;2024-02-23T13:49:52;9.10;99.90
18934;DHT22;9599;53.706;10.384;2024-02-23T13:52:20;9.00;99.90
18934;DHT22;9599;53.706;10.384;2024-02-23T13:54:48;9.00;99.90
18934;DHT22;9599;53.706;10.384;2024-02-23T13:57:18;9.00;99.90
18934;DHT22;9599;53.706;10.384;2024-02-23T13:59:46;9.00;99.90
18934;DHT22;9599;53.706;10.384;2024-02-23T14:02:14;9.10;99.90
18934;DHT22;9599;53.706;10.384;2024-02-23T14:04:43;9.20;99.90
18934;DHT22;9599;53.706;10.384;2024-02-23T14:07:12;9.30;99.90
18934;DHT22;9599;53.706;10.384;2024-02-23T14:09:40;9.50;99.90
18934;DHT22;9599;53.706;10.384;2024-02-23T14:12:08;9.60;99.90
18934;DHT22;9599;53.706;10.384;2024-02-23T14:14:38;9.40;99.90
18934;DHT22;9599;53.706;10.384;2024-02-23T14:17:06;9.30;99.90
18934;DHT22;9599;53.706;10.384;2024-02-23T14:19:34;9.10;99.90
18934;DHT22;9599;53.706;10.384;2024-02-23T14:22:05;9.10;99.90
18934;DHT22;9599;53.706;10.384;2024-02-23T14:24:33;9.00;99.90
18934;DHT22;9599;53.706;10.384;2024-02-23T14:27:01;9.00;99.90
18934;DHT22;9599;53.706;10.384;2024-02-23T14:29:29;9.00;99.90
18934;DHT22;9599;53.706;10.384;2024-02-23T14:31:59;8.90;99.90
18934;DHT22;9599;53.706;10.384;2024-02-23T14:34:27;9.00;99.90
18934;DHT22;9599;53.706;10.384;2024-02-23T14:36:56;9.00;99.90
18934;DHT22;9599;53.706;10.384;2024-02-23T14:39:24;8.90;99.90
18934;DHT22;9599;53.706;10.384;2024-02-23T14:41:52;8.90;99.90
18934;DHT22;9599;53.706;10.384;2024-02-23T14:44:21;8.90;99.90
18934;DHT22;9599;53.706;10.384;2024-02-23T14:46:49;9.00;99.90
18934;DHT22;9599;53.706;10.384;2024-02-23T14:49:18;9.00;99.90
18934;DHT22;9599;53.706;10.384;2024-02-23T14:51:46;9.10;99.90
18934;DHT22;9599;53.706;10.384;2024-02-23T14:54:15;9.20;99.90
18934;DHT22;9599;53.706;10.384;2024-02-23T14:56:43;9.20;99.90
18934;DHT22;9599;53.706;10.384;2024-02-23T14:59:11;9.20;99.90
18934;DHT22;9599;53.706;10.384;2024-02-23T15:01:40;9.30;99.90
18934;DHT22;9599;53.706;10.384;2024-02-23T15:04:08;9.30;99.90
18934;DHT22;9599;53.706;10.384;2024-02-23T15:06:38;9.30;99.90
18934;DHT22;9599;53.706;10.384;2024-02-23T15:09:06;9.20;99.90
18934;DHT22;9599;53.706;10.384;2024-02-23T15:11:34;9.30;99.90
18934;DHT22;9599;53.706;10.384;2024-02-23T15:14:03;9.30;99.90
18934;DHT22;9599;53.706;10.384;2024-02-23T15:16:31;9.30;99.90
18934;DHT22;9599;53.706;10.384;2024-02-23T15:18:59;9.20;99.90
18934;DHT22;9599;53.706;10.384;2024-02-23T15:21:27;9.20;99.90
18934;DHT22;9599;53.706;10.384;2024-02-23T15:23:56;9.20;99.90
18934;DHT22;9599;53.706;10.384;2024-02-23T15:26:24;9.20;99.90
18934;DHT22;9599;53.706;10.384;2024-02-23T15:28:52;9.20;99.90
18934;DHT22;9599;53.706;10.384;2024-02-23T15:31:21;9.20;99.90
18934;DHT22;9599;53.706;10.384;2024-02-23T15:33:49;9.10;99.90
18934;DHT22;9599;53.706;10.384;2024-02-23T15:36:19;9.10;99.90
18934;DHT22;9599;53.706;10.384;2024-02-23T15:38:47;9.10;99.90
18934;DHT22;9599;53.706;10.384;2024-02-23T15:41:17;9.00;99.90
18934;DHT22;9599;53.706;10.384;2024-02-23T15:43:45;9.00;99.90
18934;DHT22;9599;53.706;10.384;2024-02-23T15:46:13;9.00;99.90
18934;DHT22;9599;53.706;10.384;2024-02-23T15:48:41;9.00;99.90
18934;DHT22;9599;53.706;10.384;2024-02-23T15:51:09;9.00;99.90
18934;DHT22;9599;53.706;10.384;2024-02-23T15:53:57;9.00;99.90
18934;DHT22;9599;53.706;10.384;2024-02-23T15:56:26;9.00;99.90